sensor_id;sensor_type;location;lat;lon;timestamp;P1;durP1;ratioP1;P2;durP2;ratioP2
69030;SDS011;56083;48.774;8.942;2023-04-03T00:00:56;7.57;;;3.30;;
69030;SDS011;56083;48.774;8.942;2023-04-03T00:03:22;8.82;;;3.40;;
69030;SDS011;56083;48.774;8.942;2023-04-03T00:05:48;6.45;;;3.05;;
69030;SDS011;56083;48.774;8.942;2023-04-03T00:08:14;8.43;;;3.30;;
69030;SDS011;56083;48.774;8.942;2023-04-03T00:10:39;5.80;;;3.08;;
69030;SDS011;56083;48.774;8.942;2023-04-03T00:13:05;7.55;;;3.25;;
69030;SDS011;56083;48.774;8.942;2023-04-03T00:15:32;6.78;;;3.45;;
69030;SDS011;56083;48.774;8.942;2023-04-03T00:17:59;8.20;;;2.88;;
69030;SDS011;56083;48.774;8.942;2023-04-03T00:20:25;6.43;;;3.20;;
69030;SDS011;56083;48.774;8.942;2023-04-03T00:22:52;7.18;;;3.50;;
69030;SDS011;56083;48.774;8.942;2023-04-03T00:25:18;7.70;;;3.03;;
69030;SDS011;56083;48.774;8.942;2023-04-03T00:27:43;10.05;;;3.60;;
69030;SDS011;56083;48.774;8.942;2023-04-03T00:30:10;7.68;;;3.30;;
69030;SDS011;56083;48.774;8.942;2023-04-03T00:32:38;7.05;;;3.40;;
69030;SDS011;56083;48.774;8.942;2023-04-03T00:35:04;7.90;;;3.60;;
69030;SDS011;56083;48.774;8.942;2023-04-03T00:37:30;6.05;;;2.88;;
69030;SDS011;56083;48.774;8.942;2023-04-03T00:39:56;8.88;;;3.40;;
69030;SDS011;56083;48.774;8.942;2023-04-03T00:42:21;6.55;;;3.08;;
69030;SDS011;56083;48.774;8.942;2023-04-03T00:47:13;6.07;;;3.55;;
69030;SDS011;56083;48.774;8.942;2023-04-03T00:49:42;8.38;;;3.30;;
69030;SDS011;56083;48.774;8.942;2023-04-03T00:52:10;9.45;;;3.45;;
69030;SDS011;56083;48.774;8.942;2023-04-03T00:54:40;5.80;;;2.97;;
69030;SDS011;56083;48.774;8.942;2023-04-03T00:57:07;7.97;;;3.47;;
69030;SDS011;56083;48.774;8.942;2023-04-03T00:59:36;9.30;;;3.63;;
69030;SDS011;56083;48.774;8.942;2023-04-03T01:02:06;10.07;;;3.78;;
69030;SDS011;56083;48.774;8.942;2023-04-03T01:04:34;5.43;;;3.22;;
69030;SDS011;56083;48.774;8.942;2023-04-03T01:07:05;7.10;;;3.47;;
69030;SDS011;56083;48.774;8.942;2023-04-03T01:09:34;7.32;;;3.55;;
69030;SDS011;56083;48.774;8.942;2023-04-03T01:12:13;7.10;;;3.63;;
69030;SDS011;56083;48.774;8.942;2023-04-03T01:14:44;5.93;;;3.58;;
69030;SDS011;56083;48.774;8.942;2023-04-03T01:28:07;9.07;;;3.50;;
69030;SDS011;56083;48.774;8.942;2023-04-03T01:30:58;5.75;;;3.30;;
69030;SDS011;56083;48.774;8.942;2023-04-03T01:33:33;6.18;;;3.45;;
69030;SDS011;56083;48.774;8.942;2023-04-03T01:36:00;6.22;;;3.25;;
69030;SDS011;56083;48.774;8.942;2023-04-03T01:38:26;8.65;;;3.40;;
69030;SDS011;56083;48.774;8.942;2023-04-03T01:40:52;10.75;;;3.65;;
69030;SDS011;56083;48.774;8.942;2023-04-03T01:43:17;6.00;;;3.55;;
69030;SDS011;56083;48.774;8.942;2023-04-03T01:45:43;7.75;;;3.70;;
69030;SDS011;56083;48.774;8.942;2023-04-03T01:48:09;7.57;;;3.88;;
69030;SDS011;56083;48.774;8.942;2023-04-03T01:50:34;8.00;;;3.55;;
69030;SDS011;56083;48.774;8.942;2023-04-03T01:53:00;9.25;;;3.95;;
69030;SDS011;56083;48.774;8.942;2023-04-03T01:55:26;7.07;;;3.50;;
69030;SDS011;56083;48.774;8.942;2023-04-03T01:57:51;7.88;;;3.83;;
69030;SDS011;56083;48.774;8.942;2023-04-03T02:00:17;9.10;;;3.92;;
69030;SDS011;56083;48.774;8.942;2023-04-03T02:02:43;6.28;;;3.58;;
69030;SDS011;56083;48.774;8.942;2023-04-03T02:05:08;7.03;;;3.92;;
69030;SDS011;56083;48.774;8.942;2023-04-03T02:07:34;7.50;;;3.90;;
69030;SDS011;56083;48.774;8.942;2023-04-03T02:10:00;9.80;;;3.88;;
69030;SDS011;56083;48.774;8.942;2023-04-03T02:12:25;9.13;;;4.13;;
69030;SDS011;56083;48.774;8.942;2023-04-03T02:14:51;7.20;;;3.65;;
69030;SDS011;56083;48.774;8.942;2023-04-03T02:17:16;8.90;;;4.00;;
69030;SDS011;56083;48.774;8.942;2023-04-03T02:19:42;9.05;;;3.80;;
69030;SDS011;56083;48.774;8.942;2023-04-03T02:22:08;6.55;;;3.90;;
69030;SDS011;56083;48.774;8.942;2023-04-03T02:24:34;7.30;;;3.97;;
69030;SDS011;56083;48.774;8.942;2023-04-03T02:26:59;6.15;;;4.00;;
69030;SDS011;56083;48.774;8.942;2023-04-03T02:29:25;7.75;;;4.20;;
69030;SDS011;56083;48.774;8.942;2023-04-03T02:31:51;6.88;;;3.70;;
69030;SDS011;56083;48.774;8.942;2023-04-03T02:34:17;11.02;;;4.35;;
69030;SDS011;56083;48.774;8.942;2023-04-03T02:36:42;9.98;;;4.25;;
69030;SDS011;56083;48.774;8.942;2023-04-03T02:39:09;5.25;;;3.70;;
69030;SDS011;56083;48.774;8.942;2023-04-03T02:41:34;7.75;;;3.85;;
69030;SDS011;56083;48.774;8.942;2023-04-03T02:44:01;6.53;;;4.00;;
69030;SDS011;56083;48.774;8.942;2023-04-03T02:46:27;8.75;;;4.05;;
69030;SDS011;56083;48.774;8.942;2023-04-03T02:48:53;5.15;;;3.28;;
69030;SDS011;56083;48.774;8.942;2023-04-03T02:51:19;7.50;;;3.75;;
69030;SDS011;56083;48.774;8.942;2023-04-03T02:53:45;9.63;;;3.83;;
69030;SDS011;56083;48.774;8.942;2023-04-03T02:56:10;6.10;;;3.58;;
69030;SDS011;56083;48.774;8.942;2023-04-03T02:58:36;8.50;;;3.83;;
69030;SDS011;56083;48.774;8.942;2023-04-03T03:01:02;12.18;;;4.40;;
69030;SDS011;56083;48.774;8.942;2023-04-03T03:03:28;5.88;;;3.65;;
69030;SDS011;56083;48.774;8.942;2023-04-03T03:06:00;6.38;;;3.30;;
69030;SDS011;56083;48.774;8.942;2023-04-03T03:08:27;6.55;;;3.50;;
69030;SDS011;56083;48.774;8.942;2023-04-03T03:10:53;7.45;;;3.55;;
69030;SDS011;56083;48.774;8.942;2023-04-03T03:13:18;8.40;;;3.75;;
69030;SDS011;56083;48.774;8.942;2023-04-03T03:15:44;5.70;;;3.40;;
69030;SDS011;56083;48.774;8.942;2023-04-03T03:18:10;7.90;;;3.45;;
69030;SDS011;56083;48.774;8.942;2023-04-03T03:20:35;7.63;;;3.60;;
69030;SDS011;56083;48.774;8.942;2023-04-03T03:23:01;6.53;;;3.75;;
69030;SDS011;56083;48.774;8.942;2023-04-03T03:25:26;6.05;;;3.38;;
69030;SDS011;56083;48.774;8.942;2023-04-03T03:27:52;6.90;;;3.35;;
69030;SDS011;56083;48.774;8.942;2023-04-03T03:30:17;6.38;;;3.92;;
69030;SDS011;56083;48.774;8.942;2023-04-03T03:32:43;8.40;;;3.58;;
69030;SDS011;56083;48.774;8.942;2023-04-03T03:35:09;6.13;;;3.88;;
69030;SDS011;56083;48.774;8.942;2023-04-03T03:37:34;6.97;;;3.67;;
69030;SDS011;56083;48.774;8.942;2023-04-03T03:40:00;10.80;;;4.10;;
69030;SDS011;56083;48.774;8.942;2023-04-03T03:42:26;6.88;;;3.90;;
69030;SDS011;56083;48.774;8.942;2023-04-03T03:44:51;7.88;;;3.75;;
69030;SDS011;56083;48.774;8.942;2023-04-03T03:47:17;8.30;;;3.58;;
69030;SDS011;56083;48.774;8.942;2023-04-03T03:49:42;7.35;;;3.70;;
69030;SDS011;56083;48.774;8.942;2023-04-03T03:52:08;5.90;;;3.42;;
69030;SDS011;56083;48.774;8.942;2023-04-03T03:54:35;6.32;;;3.97;;
69030;SDS011;56083;48.774;8.942;2023-04-03T03:57:02;6.22;;;3.60;;
69030;SDS011;56083;48.774;8.942;2023-04-03T03:59:28;6.13;;;3.70;;
69030;SDS011;56083;48.774;8.942;2023-04-03T04:01:53;6.82;;;3.50;;
69030;SDS011;56083;48.774;8.942;2023-04-03T04:04:19;6.78;;;3.75;;
69030;SDS011;56083;48.774;8.942;2023-04-03T04:06:45;6.82;;;3.67;;
69030;SDS011;56083;48.774;8.942;2023-04-03T04:09:11;6.53;;;3.65;;
69030;SDS011;56083;48.774;8.942;2023-04-03T04:11:37;5.65;;;2.92;;
69030;SDS011;56083;48.774;8.942;2023-04-03T04:14:04;6.15;;;3.22;;
69030;SDS011;56083;48.774;8.942;2023-04-03T04:16:30;7.03;;;3.38;;
69030;SDS011;56083;48.774;8.942;2023-04-03T04:18:56;5.57;;;2.78;;
69030;SDS011;56083;48.774;8.942;2023-04-03T04:21:21;8.43;;;3.00;;
69030;SDS011;56083;48.774;8.942;2023-04-03T04:23:47;5.38;;;3.17;;
69030;SDS011;56083;48.774;8.942;2023-04-03T04:26:13;5.20;;;3.10;;
69030;SDS011;56083;48.774;8.942;2023-04-03T04:28:39;6.97;;;3.10;;
69030;SDS011;56083;48.774;8.942;2023-04-03T04:33:37;7.13;;;3.42;;
69030;SDS011;56083;48.774;8.942;2023-04-03T04:36:03;4.97;;;2.80;;
69030;SDS011;56083;48.774;8.942;2023-04-03T04:38:28;5.22;;;3.15;;
69030;SDS011;56083;48.774;8.942;2023-04-03T04:40:54;6.97;;;2.88;;
69030;SDS011;56083;48.774;8.942;2023-04-03T04:43:20;7.38;;;2.70;;
69030;SDS011;56083;48.774;8.942;2023-04-03T04:45:46;7.28;;;3.20;;
69030;SDS011;56083;48.774;8.942;2023-04-03T04:48:11;6.68;;;2.80;;
69030;SDS011;56083;48.774;8.942;2023-04-03T04:50:37;6.38;;;2.92;;
69030;SDS011;56083;48.774;8.942;2023-04-03T04:53:03;7.07;;;3.03;;
69030;SDS011;56083;48.774;8.942;2023-04-03T04:55:29;6.60;;;3.08;;
69030;SDS011;56083;48.774;8.942;2023-04-03T04:57:54;4.88;;;2.70;;
69030;SDS011;56083;48.774;8.942;2023-04-03T05:00:20;8.73;;;2.95;;
69030;SDS011;56083;48.774;8.942;2023-04-03T05:02:46;8.20;;;3.22;;
69030;SDS011;56083;48.774;8.942;2023-04-03T05:05:12;4.90;;;2.75;;
69030;SDS011;56083;48.774;8.942;2023-04-03T05:07:37;7.22;;;2.92;;
69030;SDS011;56083;48.774;8.942;2023-04-03T05:10:03;5.05;;;2.47;;
69030;SDS011;56083;48.774;8.942;2023-04-03T05:12:29;5.53;;;2.42;;
69030;SDS011;56083;48.774;8.942;2023-04-03T05:14:55;5.60;;;2.85;;
69030;SDS011;56083;48.774;8.942;2023-04-03T05:17:20;5.47;;;2.58;;
69030;SDS011;56083;48.774;8.942;2023-04-03T05:19:46;4.28;;;2.40;;
69030;SDS011;56083;48.774;8.942;2023-04-03T05:22:12;4.75;;;2.58;;
69030;SDS011;56083;48.774;8.942;2023-04-03T05:24:37;5.75;;;2.85;;
69030;SDS011;56083;48.774;8.942;2023-04-03T05:27:03;6.63;;;2.90;;
69030;SDS011;56083;48.774;8.942;2023-04-03T05:29:29;4.72;;;2.78;;
69030;SDS011;56083;48.774;8.942;2023-04-03T05:31:54;5.05;;;2.53;;
69030;SDS011;56083;48.774;8.942;2023-04-03T05:34:20;4.80;;;2.35;;
69030;SDS011;56083;48.774;8.942;2023-04-03T05:36:46;6.00;;;2.50;;
69030;SDS011;56083;48.774;8.942;2023-04-03T05:39:11;4.30;;;2.55;;
69030;SDS011;56083;48.774;8.942;2023-04-03T05:41:37;4.97;;;2.75;;
69030;SDS011;56083;48.774;8.942;2023-04-03T05:44:03;6.78;;;2.58;;
69030;SDS011;56083;48.774;8.942;2023-04-03T05:46:28;4.60;;;2.40;;
69030;SDS011;56083;48.774;8.942;2023-04-03T05:48:54;7.82;;;2.95;;
69030;SDS011;56083;48.774;8.942;2023-04-03T05:51:25;4.72;;;2.40;;
69030;SDS011;56083;48.774;8.942;2023-04-03T05:53:57;3.78;;;2.42;;
69030;SDS011;56083;48.774;8.942;2023-04-03T05:56:34;4.30;;;2.40;;
69030;SDS011;56083;48.774;8.942;2023-04-03T05:58:59;4.90;;;2.50;;
69030;SDS011;56083;48.774;8.942;2023-04-03T06:01:25;5.35;;;2.65;;
69030;SDS011;56083;48.774;8.942;2023-04-03T06:03:51;4.45;;;2.47;;
69030;SDS011;56083;48.774;8.942;2023-04-03T06:06:17;5.80;;;2.83;;
69030;SDS011;56083;48.774;8.942;2023-04-03T06:08:42;6.63;;;2.92;;
69030;SDS011;56083;48.774;8.942;2023-04-03T06:11:08;5.90;;;2.35;;
69030;SDS011;56083;48.774;8.942;2023-04-03T06:13:34;6.05;;;2.65;;
69030;SDS011;56083;48.774;8.942;2023-04-03T06:16:00;5.72;;;2.70;;
69030;SDS011;56083;48.774;8.942;2023-04-03T06:18:25;5.88;;;2.63;;
69030;SDS011;56083;48.774;8.942;2023-04-03T06:20:51;3.92;;;2.28;;
69030;SDS011;56083;48.774;8.942;2023-04-03T06:23:17;6.97;;;2.70;;
69030;SDS011;56083;48.774;8.942;2023-04-03T06:25:43;7.38;;;2.90;;
69030;SDS011;56083;48.774;8.942;2023-04-03T06:28:08;6.93;;;2.83;;
69030;SDS011;56083;48.774;8.942;2023-04-03T06:30:35;8.13;;;2.78;;
69030;SDS011;56083;48.774;8.942;2023-04-03T06:33:01;5.20;;;2.28;;
69030;SDS011;56083;48.774;8.942;2023-04-03T06:35:27;5.57;;;2.55;;
69030;SDS011;56083;48.774;8.942;2023-04-03T06:37:55;6.85;;;2.80;;
69030;SDS011;56083;48.774;8.942;2023-04-03T06:40:22;5.70;;;2.30;;
69030;SDS011;56083;48.774;8.942;2023-04-03T06:42:49;6.72;;;2.63;;
69030;SDS011;56083;48.774;8.942;2023-04-03T06:45:14;4.97;;;2.40;;
69030;SDS011;56083;48.774;8.942;2023-04-03T06:47:40;6.22;;;2.20;;
69030;SDS011;56083;48.774;8.942;2023-04-03T06:50:06;7.97;;;2.67;;
69030;SDS011;56083;48.774;8.942;2023-04-03T06:52:32;8.43;;;2.60;;
69030;SDS011;56083;48.774;8.942;2023-04-03T06:54:57;7.10;;;2.60;;
69030;SDS011;56083;48.774;8.942;2023-04-03T06:57:24;7.45;;;2.63;;
69030;SDS011;56083;48.774;8.942;2023-04-03T06:59:50;4.85;;;2.30;;
69030;SDS011;56083;48.774;8.942;2023-04-03T07:02:16;6.30;;;2.83;;
69030;SDS011;56083;48.774;8.942;2023-04-03T07:04:42;10.15;;;2.45;;
69030;SDS011;56083;48.774;8.942;2023-04-03T07:07:07;4.15;;;2.28;;
69030;SDS011;56083;48.774;8.942;2023-04-03T07:09:33;8.65;;;2.45;;
69030;SDS011;56083;48.774;8.942;2023-04-03T07:11:59;7.60;;;2.50;;
69030;SDS011;56083;48.774;8.942;2023-04-03T07:14:25;6.18;;;2.30;;
69030;SDS011;56083;48.774;8.942;2023-04-03T07:16:50;4.75;;;2.20;;
69030;SDS011;56083;48.774;8.942;2023-04-03T07:19:16;5.10;;;2.33;;
69030;SDS011;56083;48.774;8.942;2023-04-03T07:21:43;6.30;;;2.58;;
69030;SDS011;56083;48.774;8.942;2023-04-03T07:24:09;6.25;;;2.50;;
69030;SDS011;56083;48.774;8.942;2023-04-03T07:26:35;6.72;;;2.50;;
69030;SDS011;56083;48.774;8.942;2023-04-03T07:29:01;5.60;;;2.65;;
69030;SDS011;56083;48.774;8.942;2023-04-03T07:31:27;5.80;;;2.72;;
69030;SDS011;56083;48.774;8.942;2023-04-03T07:33:53;6.53;;;2.83;;
69030;SDS011;56083;48.774;8.942;2023-04-03T07:36:19;4.05;;;2.30;;
69030;SDS011;56083;48.774;8.942;2023-04-03T07:38:46;6.90;;;2.50;;
69030;SDS011;56083;48.774;8.942;2023-04-03T07:41:13;4.95;;;2.33;;
69030;SDS011;56083;48.774;8.942;2023-04-03T07:43:42;5.80;;;2.42;;
69030;SDS011;56083;48.774;8.942;2023-04-03T07:46:08;5.63;;;2.58;;
69030;SDS011;56083;48.774;8.942;2023-04-03T07:48:34;7.95;;;2.65;;
69030;SDS011;56083;48.774;8.942;2023-04-03T07:51:00;4.20;;;2.30;;
69030;SDS011;56083;48.774;8.942;2023-04-03T07:53:27;5.65;;;2.63;;
69030;SDS011;56083;48.774;8.942;2023-04-03T07:55:53;4.70;;;2.42;;
69030;SDS011;56083;48.774;8.942;2023-04-03T07:58:21;9.50;;;2.80;;
69030;SDS011;56083;48.774;8.942;2023-04-03T08:00:46;6.13;;;2.50;;
69030;SDS011;56083;48.774;8.942;2023-04-03T08:03:13;6.30;;;2.55;;
69030;SDS011;56083;48.774;8.942;2023-04-03T08:05:41;5.68;;;2.20;;
69030;SDS011;56083;48.774;8.942;2023-04-03T08:08:10;7.85;;;2.60;;
69030;SDS011;56083;48.774;8.942;2023-04-03T08:10:37;6.75;;;2.67;;
69030;SDS011;56083;48.774;8.942;2023-04-03T08:13:03;11.23;;;2.40;;
69030;SDS011;56083;48.774;8.942;2023-04-03T08:15:30;7.53;;;2.50;;
69030;SDS011;56083;48.774;8.942;2023-04-03T08:17:56;5.10;;;2.40;;
69030;SDS011;56083;48.774;8.942;2023-04-03T08:20:23;6.32;;;2.47;;
69030;SDS011;56083;48.774;8.942;2023-04-03T08:22:48;7.18;;;2.55;;
69030;SDS011;56083;48.774;8.942;2023-04-03T08:25:14;6.28;;;2.30;;
69030;SDS011;56083;48.774;8.942;2023-04-03T08:27:40;5.80;;;2.40;;
69030;SDS011;56083;48.774;8.942;2023-04-03T08:30:06;9.02;;;2.75;;
69030;SDS011;56083;48.774;8.942;2023-04-03T08:32:35;5.28;;;2.45;;
69030;SDS011;56083;48.774;8.942;2023-04-03T08:35:02;5.95;;;2.22;;
69030;SDS011;56083;48.774;8.942;2023-04-03T08:37:31;8.57;;;2.78;;
69030;SDS011;56083;48.774;8.942;2023-04-03T08:39:59;9.00;;;2.70;;
69030;SDS011;56083;48.774;8.942;2023-04-03T08:45:16;7.95;;;2.45;;
69030;SDS011;56083;48.774;8.942;2023-04-03T08:47:56;5.95;;;2.53;;
69030;SDS011;56083;48.774;8.942;2023-04-03T08:50:31;7.38;;;2.38;;
69030;SDS011;56083;48.774;8.942;2023-04-03T08:53:02;5.43;;;2.40;;
69030;SDS011;56083;48.774;8.942;2023-04-03T08:55:33;6.72;;;2.35;;
69030;SDS011;56083;48.774;8.942;2023-04-03T08:58:05;7.00;;;2.40;;
69030;SDS011;56083;48.774;8.942;2023-04-03T09:00:51;6.82;;;2.42;;
69030;SDS011;56083;48.774;8.942;2023-04-03T09:03:24;7.60;;;2.58;;
69030;SDS011;56083;48.774;8.942;2023-04-03T09:11:26;7.85;;;2.67;;
69030;SDS011;56083;48.774;8.942;2023-04-03T09:14:02;14.05;;;2.88;;
69030;SDS011;56083;48.774;8.942;2023-04-03T09:16:49;3.85;;;2.25;;
69030;SDS011;56083;48.774;8.942;2023-04-03T09:19:38;7.43;;;2.70;;
69030;SDS011;56083;48.774;8.942;2023-04-03T09:22:13;8.27;;;2.08;;
69030;SDS011;56083;48.774;8.942;2023-04-03T09:24:40;6.28;;;2.20;;
69030;SDS011;56083;48.774;8.942;2023-04-03T09:27:08;6.82;;;2.30;;
69030;SDS011;56083;48.774;8.942;2023-04-03T09:29:38;6.55;;;2.40;;
69030;SDS011;56083;48.774;8.942;2023-04-03T09:32:22;5.00;;;2.38;;
69030;SDS011;56083;48.774;8.942;2023-04-03T09:34:54;8.90;;;2.53;;
69030;SDS011;56083;48.774;8.942;2023-04-03T09:37:39;9.87;;;2.90;;
69030;SDS011;56083;48.774;8.942;2023-04-03T09:40:30;8.05;;;2.35;;
69030;SDS011;56083;48.774;8.942;2023-04-03T09:42:57;9.43;;;2.55;;
69030;SDS011;56083;48.774;8.942;2023-04-03T09:45:34;6.80;;;2.60;;
69030;SDS011;56083;48.774;8.942;2023-04-03T09:48:05;5.45;;;2.88;;
69030;SDS011;56083;48.774;8.942;2023-04-03T09:50:37;7.28;;;2.97;;
69030;SDS011;56083;48.774;8.942;2023-04-03T09:59:06;5.28;;;2.20;;
69030;SDS011;56083;48.774;8.942;2023-04-03T10:01:39;5.32;;;1.92;;
69030;SDS011;56083;48.774;8.942;2023-04-03T10:06:36;5.50;;;2.20;;
69030;SDS011;56083;48.774;8.942;2023-04-03T10:09:10;6.10;;;2.45;;
69030;SDS011;56083;48.774;8.942;2023-04-03T10:14:58;5.57;;;2.22;;
69030;SDS011;56083;48.774;8.942;2023-04-03T10:23:15;4.35;;;2.10;;
69030;SDS011;56083;48.774;8.942;2023-04-03T10:28:45;6.55;;;1.75;;
69030;SDS011;56083;48.774;8.942;2023-04-03T10:34:22;5.55;;;1.58;;
69030;SDS011;56083;48.774;8.942;2023-04-03T10:39:32;5.32;;;1.77;;
69030;SDS011;56083;48.774;8.942;2023-04-03T10:45:15;4.20;;;1.65;;
69030;SDS011;56083;48.774;8.942;2023-04-03T10:55:50;4.55;;;1.60;;
69030;SDS011;56083;48.774;8.942;2023-04-03T10:58:41;3.40;;;1.50;;
69030;SDS011;56083;48.774;8.942;2023-04-03T11:01:11;4.50;;;1.70;;
69030;SDS011;56083;48.774;8.942;2023-04-03T11:03:45;4.68;;;1.48;;
69030;SDS011;56083;48.774;8.942;2023-04-03T11:06:15;6.50;;;2.03;;
69030;SDS011;56083;48.774;8.942;2023-04-03T11:11:32;6.60;;;1.60;;
69030;SDS011;56083;48.774;8.942;2023-04-03T11:16:35;5.00;;;1.70;;
69030;SDS011;56083;48.774;8.942;2023-04-03T11:19:13;4.45;;;1.80;;
69030;SDS011;56083;48.774;8.942;2023-04-03T11:24:41;5.22;;;1.60;;
69030;SDS011;56083;48.774;8.942;2023-04-03T11:27:11;7.85;;;1.92;;
69030;SDS011;56083;48.774;8.942;2023-04-03T11:29:47;5.82;;;1.85;;
69030;SDS011;56083;48.774;8.942;2023-04-03T11:32:29;4.80;;;1.70;;
69030;SDS011;56083;48.774;8.942;2023-04-03T11:35:06;8.30;;;2.80;;
69030;SDS011;56083;48.774;8.942;2023-04-03T11:40:06;4.80;;;1.80;;
69030;SDS011;56083;48.774;8.942;2023-04-03T11:42:48;8.57;;;2.05;;
69030;SDS011;56083;48.774;8.942;2023-04-03T11:48:01;10.52;;;2.53;;
69030;SDS011;56083;48.774;8.942;2023-04-03T11:50:50;7.95;;;3.05;;
69030;SDS011;56083;48.774;8.942;2023-04-03T11:55:43;4.05;;;2.25;;
69030;SDS011;56083;48.774;8.942;2023-04-03T11:58:23;10.98;;;4.70;;
69030;SDS011;56083;48.774;8.942;2023-04-03T12:00:54;5.28;;;1.90;;
69030;SDS011;56083;48.774;8.942;2023-04-03T12:03:31;4.40;;;1.67;;
69030;SDS011;56083;48.774;8.942;2023-04-03T12:26:34;6.18;;;1.90;;
69030;SDS011;56083;48.774;8.942;2023-04-03T12:31:59;4.50;;;1.67;;
69030;SDS011;56083;48.774;8.942;2023-04-03T12:43:18;6.10;;;1.45;;
69030;SDS011;56083;48.774;8.942;2023-04-03T12:51:35;6.18;;;1.95;;
69030;SDS011;56083;48.774;8.942;2023-04-03T12:54:12;4.43;;;1.55;;
69030;SDS011;56083;48.774;8.942;2023-04-03T12:56:44;4.63;;;1.50;;
69030;SDS011;56083;48.774;8.942;2023-04-03T12:59:20;4.20;;;1.60;;
69030;SDS011;56083;48.774;8.942;2023-04-03T13:01:54;3.20;;;1.20;;
69030;SDS011;56083;48.774;8.942;2023-04-03T13:04:39;5.35;;;1.73;;
69030;SDS011;56083;48.774;8.942;2023-04-03T13:07:05;3.35;;;1.60;;
69030;SDS011;56083;48.774;8.942;2023-04-03T13:09:43;6.32;;;1.52;;
69030;SDS011;56083;48.774;8.942;2023-04-03T13:12:19;4.72;;;1.65;;
69030;SDS011;56083;48.774;8.942;2023-04-03T13:14:52;6.88;;;2.22;;
69030;SDS011;56083;48.774;8.942;2023-04-03T13:17:29;4.70;;;1.90;;
69030;SDS011;56083;48.774;8.942;2023-04-03T13:19:57;5.40;;;2.10;;
69030;SDS011;56083;48.774;8.942;2023-04-03T13:22:38;5.18;;;2.05;;
69030;SDS011;56083;48.774;8.942;2023-04-03T13:25:11;4.82;;;2.05;;
69030;SDS011;56083;48.774;8.942;2023-04-03T13:27:40;6.10;;;2.13;;
69030;SDS011;56083;48.774;8.942;2023-04-03T13:33:20;5.38;;;1.50;;
69030;SDS011;56083;48.774;8.942;2023-04-03T13:35:48;4.85;;;1.67;;
69030;SDS011;56083;48.774;8.942;2023-04-03T13:40:53;6.57;;;1.75;;
69030;SDS011;56083;48.774;8.942;2023-04-03T13:43:26;6.03;;;2.00;;
69030;SDS011;56083;48.774;8.942;2023-04-03T13:46:35;5.97;;;1.98;;
69030;SDS011;56083;48.774;8.942;2023-04-03T13:48:43;3.25;;;1.45;;
69030;SDS011;56083;48.774;8.942;2023-04-03T13:59:21;4.78;;;1.42;;
69030;SDS011;56083;48.774;8.942;2023-04-03T14:06:57;5.65;;;1.60;;
69030;SDS011;56083;48.774;8.942;2023-04-03T14:09:24;3.22;;;1.80;;
69030;SDS011;56083;48.774;8.942;2023-04-03T14:11:53;5.13;;;1.77;;
69030;SDS011;56083;48.774;8.942;2023-04-03T14:14:23;4.35;;;1.75;;
69030;SDS011;56083;48.774;8.942;2023-04-03T14:16:53;4.80;;;1.40;;
69030;SDS011;56083;48.774;8.942;2023-04-03T14:19:24;6.30;;;1.98;;
69030;SDS011;56083;48.774;8.942;2023-04-03T14:21:53;5.68;;;1.70;;
69030;SDS011;56083;48.774;8.942;2023-04-03T14:24:20;4.13;;;1.58;;
69030;SDS011;56083;48.774;8.942;2023-04-03T14:26:47;5.22;;;1.55;;
69030;SDS011;56083;48.774;8.942;2023-04-03T14:29:15;6.97;;;1.42;;
69030;SDS011;56083;48.774;8.942;2023-04-03T14:31:41;6.72;;;1.70;;
69030;SDS011;56083;48.774;8.942;2023-04-03T14:34:10;7.00;;;1.60;;
69030;SDS011;56083;48.774;8.942;2023-04-03T14:36:40;3.90;;;1.42;;
69030;SDS011;56083;48.774;8.942;2023-04-03T14:39:07;4.38;;;1.52;;
69030;SDS011;56083;48.774;8.942;2023-04-03T14:41:41;5.07;;;1.58;;
69030;SDS011;56083;48.774;8.942;2023-04-03T14:44:07;7.32;;;1.80;;
69030;SDS011;56083;48.774;8.942;2023-04-03T14:46:34;8.27;;;1.90;;
69030;SDS011;56083;48.774;8.942;2023-04-03T14:49:02;6.75;;;1.45;;
69030;SDS011;56083;48.774;8.942;2023-04-03T14:51:32;3.67;;;1.40;;
69030;SDS011;56083;48.774;8.942;2023-04-03T14:53:58;4.63;;;2.00;;
69030;SDS011;56083;48.774;8.942;2023-04-03T14:56:28;5.95;;;1.58;;
69030;SDS011;56083;48.774;8.942;2023-04-03T14:58:58;4.15;;;1.67;;
69030;SDS011;56083;48.774;8.942;2023-04-03T15:01:25;7.00;;;1.88;;
69030;SDS011;56083;48.774;8.942;2023-04-03T15:03:52;4.28;;;1.42;;
69030;SDS011;56083;48.774;8.942;2023-04-03T15:06:17;4.43;;;1.52;;
69030;SDS011;56083;48.774;8.942;2023-04-03T15:08:44;2.47;;;1.45;;
69030;SDS011;56083;48.774;8.942;2023-04-03T15:11:12;4.38;;;1.60;;
69030;SDS011;56083;48.774;8.942;2023-04-03T15:13:38;3.55;;;1.60;;
69030;SDS011;56083;48.774;8.942;2023-04-03T15:16:04;4.65;;;1.42;;
69030;SDS011;56083;48.774;8.942;2023-04-03T15:18:41;4.20;;;1.40;;
69030;SDS011;56083;48.774;8.942;2023-04-03T15:21:07;4.43;;;1.50;;
69030;SDS011;56083;48.774;8.942;2023-04-03T15:23:32;7.85;;;1.58;;
69030;SDS011;56083;48.774;8.942;2023-04-03T15:25:58;3.97;;;1.70;;
69030;SDS011;56083;48.774;8.942;2023-04-03T15:28:28;4.38;;;1.63;;
69030;SDS011;56083;48.774;8.942;2023-04-03T15:30:58;5.72;;;1.40;;
69030;SDS011;56083;48.774;8.942;2023-04-03T15:33:25;4.00;;;1.60;;
69030;SDS011;56083;48.774;8.942;2023-04-03T15:35:51;5.85;;;1.75;;
69030;SDS011;56083;48.774;8.942;2023-04-03T15:38:17;3.42;;;1.30;;
69030;SDS011;56083;48.774;8.942;2023-04-03T15:40:43;6.68;;;1.70;;
69030;SDS011;56083;48.774;8.942;2023-04-03T15:43:09;4.10;;;1.35;;
69030;SDS011;56083;48.774;8.942;2023-04-03T15:45:35;5.07;;;1.40;;
69030;SDS011;56083;48.774;8.942;2023-04-03T15:48:02;3.35;;;1.38;;
69030;SDS011;56083;48.774;8.942;2023-04-03T15:50:29;4.03;;;1.40;;
69030;SDS011;56083;48.774;8.942;2023-04-03T15:52:56;3.53;;;1.52;;
69030;SDS011;56083;48.774;8.942;2023-04-03T15:55:25;5.88;;;1.58;;
69030;SDS011;56083;48.774;8.942;2023-04-03T15:57:53;4.55;;;1.50;;
69030;SDS011;56083;48.774;8.942;2023-04-03T16:00:19;5.90;;;1.75;;
69030;SDS011;56083;48.774;8.942;2023-04-03T16:02:46;4.95;;;1.60;;
69030;SDS011;56083;48.774;8.942;2023-04-03T16:05:15;6.15;;;2.03;;
69030;SDS011;56083;48.774;8.942;2023-04-03T16:07:42;2.65;;;1.50;;
69030;SDS011;56083;48.774;8.942;2023-04-03T16:10:08;5.70;;;1.90;;
69030;SDS011;56083;48.774;8.942;2023-04-03T16:12:35;5.63;;;1.85;;
69030;SDS011;56083;48.774;8.942;2023-04-03T16:15:00;4.00;;;1.65;;
69030;SDS011;56083;48.774;8.942;2023-04-03T16:17:27;5.28;;;1.73;;
69030;SDS011;56083;48.774;8.942;2023-04-03T16:19:53;5.38;;;2.08;;
69030;SDS011;56083;48.774;8.942;2023-04-03T16:22:20;7.45;;;1.77;;
69030;SDS011;56083;48.774;8.942;2023-04-03T16:24:48;5.88;;;2.25;;
69030;SDS011;56083;48.774;8.942;2023-04-03T16:27:14;5.75;;;1.70;;
69030;SDS011;56083;48.774;8.942;2023-04-03T16:29:40;8.60;;;1.98;;
69030;SDS011;56083;48.774;8.942;2023-04-03T16:32:06;6.25;;;1.90;;
69030;SDS011;56083;48.774;8.942;2023-04-03T16:34:32;4.88;;;1.48;;
69030;SDS011;56083;48.774;8.942;2023-04-03T16:36:58;7.25;;;1.50;;
69030;SDS011;56083;48.774;8.942;2023-04-03T16:39:24;4.05;;;1.60;;
69030;SDS011;56083;48.774;8.942;2023-04-03T16:41:50;4.65;;;1.88;;
69030;SDS011;56083;48.774;8.942;2023-04-03T16:44:15;4.05;;;1.60;;
69030;SDS011;56083;48.774;8.942;2023-04-03T16:46:41;3.83;;;1.75;;
69030;SDS011;56083;48.774;8.942;2023-04-03T16:49:07;7.57;;;2.20;;
69030;SDS011;56083;48.774;8.942;2023-04-03T16:51:32;6.57;;;1.63;;
69030;SDS011;56083;48.774;8.942;2023-04-03T16:53:58;5.00;;;1.70;;
69030;SDS011;56083;48.774;8.942;2023-04-03T16:56:24;3.83;;;1.80;;
69030;SDS011;56083;48.774;8.942;2023-04-03T16:58:51;4.68;;;1.73;;
69030;SDS011;56083;48.774;8.942;2023-04-03T17:01:18;3.85;;;1.70;;
69030;SDS011;56083;48.774;8.942;2023-04-03T17:03:45;3.58;;;1.60;;
69030;SDS011;56083;48.774;8.942;2023-04-03T17:06:12;6.10;;;1.70;;
69030;SDS011;56083;48.774;8.942;2023-04-03T17:08:41;4.00;;;1.63;;